KLM1722 GMTT-LXGB
Flight info
| Callsign | KLM1722 |
|---|---|
| Flight time | 0h 21m |
| Altitude | 12000 |
| Route | LAMAD M143 GALTO N869 PIMOS |
| Aircraft | B738/M-SDE2E3FGHIRWXY/LB1 |
Departure
| Time | 2026-04-15 13:21 |
|---|---|
| Airport | Tangier Ibn Battuta Airport (GMTT) |
Arrival
| Time | 2026-04-15 13:43 |
|---|---|
| Airport | Gibraltar Airport (LXGB) |
| Time | Latitude | Longitude | Altitude | Speed | Heading |
|---|---|---|---|---|---|
| 2026-04-15 12:48 | 35.72535 | -5.91273 | 43 ft | 0 kts | 356° |
| 2026-04-15 13:11 | 35.72522 | -5.91272 | 44 ft | 3 kts | 356° |
| 2026-04-15 13:11 | 35.72501 | -5.91270 | 43 ft | 3 kts | 356° |
| 2026-04-15 13:11 | 35.72482 | -5.91269 | 41 ft | 3 kts | 349° |
| 2026-04-15 13:11 | 35.72464 | -5.91261 | 43 ft | 3 kts | 319° |
| 2026-04-15 13:12 | 35.72453 | -5.91243 | 43 ft | 3 kts | 287° |
| 2026-04-15 13:12 | 35.72449 | -5.91221 | 46 ft | 2 kts | 267° |
| 2026-04-15 13:12 | 35.72450 | -5.91207 | 47 ft | 3 kts | 265° |
| 2026-04-15 13:12 | 35.72452 | -5.91187 | 47 ft | 1 kts | 265° |
| 2026-04-15 13:13 | 35.72452 | -5.91185 | 47 ft | 1 kts | 265° |
| 2026-04-15 13:16 | 35.72452 | -5.91186 | 47 ft | 0 kts | 265° |
| 2026-04-15 13:16 | 35.72451 | -5.91195 | 47 ft | 6 kts | 265° |
| 2026-04-15 13:16 | 35.72438 | -5.91341 | 42 ft | 27 kts | 264° |
| 2026-04-15 13:17 | 35.72435 | -5.91580 | 42 ft | 27 kts | 283° |
| 2026-04-15 13:17 | 35.72585 | -5.91692 | 40 ft | 27 kts | 355° |
| 2026-04-15 13:17 | 35.72781 | -5.91711 | 39 ft | 29 kts | 355° |
| 2026-04-15 13:17 | 35.72926 | -5.91744 | 39 ft | 19 kts | 319° |
| 2026-04-15 13:18 | 35.72956 | -5.91909 | 36 ft | 22 kts | 277° |
| 2026-04-15 13:18 | 35.72984 | -5.92108 | 34 ft | 25 kts | 278° |
| 2026-04-15 13:18 | 35.73006 | -5.92335 | 31 ft | 28 kts | 276° |
| 2026-04-15 13:18 | 35.73027 | -5.92585 | 28 ft | 31 kts | 276° |
| 2026-04-15 13:19 | 35.73051 | -5.92854 | 24 ft | 33 kts | 277° |
| 2026-04-15 13:19 | 35.73079 | -5.93140 | 21 ft | 35 kts | 277° |
| 2026-04-15 13:19 | 35.73109 | -5.93442 | 16 ft | 36 kts | 277° |
| 2026-04-15 13:19 | 35.73137 | -5.93751 | 12 ft | 34 kts | 277° |
| 2026-04-15 13:20 | 35.73164 | -5.93970 | 11 ft | 20 kts | 288° |
| 2026-04-15 13:20 | 35.73245 | -5.94051 | 9 ft | 0 kts | 358° |
| 2026-04-15 13:20 | 35.73254 | -5.94050 | 9 ft | 5 kts | 4° |
| 2026-04-15 13:21 | 35.73332 | -5.93966 | 13 ft | 24 kts | 75° |
| 2026-04-15 13:21 | 35.73296 | -5.93501 | 15 ft | 106 kts | 96° |
| 2026-04-15 13:21 | 35.73177 | -5.92196 | 170 ft | 190 kts | 95° |
| 2026-04-15 13:21 | 35.73285 | -5.90429 | 1047 ft | 220 kts | 79° |
| 2026-04-15 13:22 | 35.73511 | -5.88456 | 2038 ft | 246 kts | 83° |
| 2026-04-15 13:22 | 35.73717 | -5.86223 | 2912 ft | 277 kts | 83° |
| 2026-04-15 13:22 | 35.73960 | -5.83800 | 3760 ft | 292 kts | 82° |
| 2026-04-15 13:22 | 35.74244 | -5.81270 | 4647 ft | 305 kts | 81° |
| 2026-04-15 13:23 | 35.74562 | -5.78642 | 5519 ft | 316 kts | 81° |
| 2026-04-15 13:23 | 35.74911 | -5.75920 | 6390 ft | 327 kts | 81° |
| 2026-04-15 13:23 | 35.75281 | -5.73121 | 7219 ft | 336 kts | 80° |
| 2026-04-15 13:23 | 35.75665 | -5.70255 | 8035 ft | 341 kts | 79° |
| 2026-04-15 13:24 | 35.76057 | -5.67375 | 8890 ft | 342 kts | 79° |
| 2026-04-15 13:24 | 35.76456 | -5.64465 | 9602 ft | 349 kts | 79° |
| 2026-04-15 13:24 | 35.76868 | -5.61451 | 9958 ft | 366 kts | 79° |
| 2026-04-15 13:24 | 35.77295 | -5.58327 | 10007 ft | 372 kts | 79° |
| 2026-04-15 13:25 | 35.77725 | -5.55171 | 10017 ft | 374 kts | 79° |
| 2026-04-15 13:25 | 35.78151 | -5.52026 | 9993 ft | 371 kts | 79° |
| 2026-04-15 13:25 | 35.78569 | -5.48940 | 10000 ft | 370 kts | 79° |
| 2026-04-15 13:25 | 35.79002 | -5.45773 | 9993 ft | 370 kts | 79° |
| 2026-04-15 13:26 | 35.79428 | -5.42687 | 9986 ft | 370 kts | 79° |
| 2026-04-15 13:26 | 35.79860 | -5.39565 | 9979 ft | 370 kts | 79° |
| 2026-04-15 13:26 | 35.80292 | -5.36434 | 9994 ft | 371 kts | 79° |
| 2026-04-15 13:26 | 35.80724 | -5.33294 | 9987 ft | 372 kts | 79° |
| 2026-04-15 13:27 | 35.81155 | -5.30149 | 9997 ft | 373 kts | 79° |
| 2026-04-15 13:27 | 35.81585 | -5.27004 | 9993 ft | 372 kts | 79° |
| 2026-04-15 13:27 | 35.82015 | -5.23861 | 9995 ft | 372 kts | 79° |
| 2026-04-15 13:27 | 35.82444 | -5.20713 | 9995 ft | 372 kts | 79° |
| 2026-04-15 13:28 | 35.82901 | -5.17578 | 9995 ft | 371 kts | 74° |
| 2026-04-15 13:28 | 35.83932 | -5.14691 | 9995 ft | 368 kts | 54° |
| 2026-04-15 13:28 | 35.85678 | -5.12416 | 10003 ft | 366 kts | 36° |
| 2026-04-15 13:28 | 35.87798 | -5.10686 | 10003 ft | 365 kts | 31° |
| 2026-04-15 13:29 | 35.89957 | -5.09027 | 9989 ft | 366 kts | 31° |
| 2026-04-15 13:29 | 35.92117 | -5.07371 | 9989 ft | 366 kts | 31° |
| 2026-04-15 13:29 | 35.94273 | -5.05704 | 9992 ft | 366 kts | 31° |
| 2026-04-15 13:29 | 35.96424 | -5.04025 | 9995 ft | 366 kts | 32° |
| 2026-04-15 13:30 | 35.98570 | -5.02337 | 9996 ft | 366 kts | 32° |
| 2026-04-15 13:30 | 36.00717 | -5.00642 | 9726 ft | 366 kts | 32° |
| 2026-04-15 13:30 | 36.02849 | -4.98954 | 9422 ft | 362 kts | 32° |
| 2026-04-15 13:30 | 36.04964 | -4.97277 | 9118 ft | 361 kts | 32° |
| 2026-04-15 13:31 | 36.07072 | -4.95603 | 8817 ft | 360 kts | 32° |
| 2026-04-15 13:31 | 36.09173 | -4.93935 | 8526 ft | 358 kts | 32° |
| 2026-04-15 13:31 | 36.11268 | -4.92270 | 8229 ft | 357 kts | 32° |
| 2026-04-15 13:31 | 36.13354 | -4.90612 | 7863 ft | 354 kts | 32° |
| 2026-04-15 13:32 | 36.15383 | -4.88968 | 7301 ft | 342 kts | 38° |
| 2026-04-15 13:32 | 36.16833 | -4.86740 | 6786 ft | 326 kts | 59° |
| 2026-04-15 13:32 | 36.17716 | -4.84223 | 6228 ft | 314 kts | 74° |
| 2026-04-15 13:32 | 36.17996 | -4.81592 | 5663 ft | 305 kts | 90° |
| 2026-04-15 13:33 | 36.17601 | -4.79057 | 5122 ft | 299 kts | 111° |
| 2026-04-15 13:33 | 36.16490 | -4.76929 | 4565 ft | 294 kts | 134° |
| 2026-04-15 13:33 | 36.14842 | -4.75580 | 4366 ft | 276 kts | 159° |
| 2026-04-15 13:33 | 36.12937 | -4.75369 | 3762 ft | 279 kts | 192° |
| 2026-04-15 13:34 | 36.11219 | -4.76338 | 3393 ft | 272 kts | 220° |
| 2026-04-15 13:34 | 36.10042 | -4.78124 | 3019 ft | 264 kts | 249° |
| 2026-04-15 13:34 | 36.09796 | -4.80181 | 3324 ft | 231 kts | 275° |
| 2026-04-15 13:34 | 36.10021 | -4.82072 | 3290 ft | 218 kts | 281° |
| 2026-04-15 13:35 | 36.10370 | -4.83903 | 3196 ft | 223 kts | 285° |
| 2026-04-15 13:35 | 36.10732 | -4.85766 | 3196 ft | 222 kts | 282° |
| 2026-04-15 13:35 | 36.11004 | -4.87643 | 3150 ft | 222 kts | 281° |
| 2026-04-15 13:35 | 36.11289 | -4.89515 | 3099 ft | 222 kts | 281° |
| 2026-04-15 13:36 | 36.11570 | -4.91406 | 3027 ft | 224 kts | 281° |
| 2026-04-15 13:36 | 36.11909 | -4.93275 | 2977 ft | 223 kts | 285° |
| 2026-04-15 13:36 | 36.12348 | -4.95105 | 2979 ft | 221 kts | 287° |
| 2026-04-15 13:36 | 36.12793 | -4.96934 | 2995 ft | 222 kts | 287° |
| 2026-04-15 13:37 | 36.13202 | -4.98793 | 2917 ft | 228 kts | 282° |
| 2026-04-15 13:37 | 36.13476 | -5.00740 | 3000 ft | 226 kts | 278° |
| 2026-04-15 13:37 | 36.13783 | -5.02628 | 3029 ft | 228 kts | 287° |
| 2026-04-15 13:37 | 36.14237 | -5.04528 | 2986 ft | 231 kts | 286° |
| 2026-04-15 13:38 | 36.14563 | -5.06415 | 2924 ft | 220 kts | 279° |
| 2026-04-15 13:38 | 36.14737 | -5.08261 | 2763 ft | 212 kts | 278° |
| 2026-04-15 13:38 | 36.14985 | -5.09982 | 2747 ft | 197 kts | 282° |
| 2026-04-15 13:38 | 36.15138 | -5.11651 | 2549 ft | 194 kts | 277° |
| 2026-04-15 13:39 | 36.15276 | -5.13288 | 2392 ft | 188 kts | 273° |
| 2026-04-15 13:39 | 36.15284 | -5.14916 | 2049 ft | 194 kts | 270° |
| 2026-04-15 13:39 | 36.15283 | -5.16551 | 1937 ft | 186 kts | 270° |
| 2026-04-15 13:39 | 36.15292 | -5.18118 | 1828 ft | 176 kts | 269° |
| 2026-04-15 13:40 | 36.15284 | -5.19563 | 1777 ft | 164 kts | 272° |
| 2026-04-15 13:40 | 36.15351 | -5.20971 | 1453 ft | 166 kts | 274° |
| 2026-04-15 13:40 | 36.15447 | -5.22462 | 1201 ft | 176 kts | 274° |
| 2026-04-15 13:40 | 36.15527 | -5.23960 | 1196 ft | 171 kts | 271° |
| 2026-04-15 13:41 | 36.15585 | -5.25340 | 1161 ft | 163 kts | 270° |
| 2026-04-15 13:41 | 36.15536 | -5.26755 | 1086 ft | 159 kts | 263° |
| 2026-04-15 13:41 | 36.15454 | -5.28098 | 1065 ft | 151 kts | 266° |
| 2026-04-15 13:41 | 36.15365 | -5.29329 | 874 ft | 140 kts | 261° |
| 2026-04-15 13:42 | 36.15296 | -5.30502 | 618 ft | 135 kts | 266° |
| 2026-04-15 13:42 | 36.15284 | -5.31667 | 455 ft | 133 kts | 259° |
| 2026-04-15 13:42 | 36.15207 | -5.32828 | 271 ft | 138 kts | 264° |
| 2026-04-15 13:42 | 36.15157 | -5.33996 | 71 ft | 132 kts | 263° |
| 2026-04-15 13:43 | 36.15114 | -5.35039 | 25 ft | 101 kts | 267° |
| 2026-04-15 13:43 | 36.15107 | -5.35490 | 21 ft | 21 kts | 267° |
| 2026-04-15 13:43 | 36.15097 | -5.35675 | 18 ft | 21 kts | 265° |
| 2026-04-15 13:43 | 36.15075 | -5.35843 | 18 ft | 19 kts | 247° |
| 2026-04-15 13:44 | 36.15093 | -5.35942 | 16 ft | 6 kts | 14° |
| 2026-04-15 13:44 | 36.15101 | -5.35909 | 16 ft | 10 kts | 87° |
| 2026-04-15 13:44 | 36.15101 | -5.35727 | 21 ft | 31 kts | 89° |
| 2026-04-15 13:44 | 36.15106 | -5.35455 | 21 ft | 31 kts | 88° |
| 2026-04-15 13:45 | 36.15106 | -5.35228 | 22 ft | 23 kts | 86° |
| 2026-04-15 13:45 | 36.15118 | -5.35035 | 23 ft | 22 kts | 80° |
| 2026-04-15 13:45 | 36.15127 | -5.34847 | 23 ft | 22 kts | 90° |
| 2026-04-15 13:47 | 36.15291 | -5.34628 | 16 ft | 3 kts | 359° |
| 2026-04-15 13:47 | 36.15304 | -5.34628 | 16 ft | 0 kts | 359° |